sensor_id;sensor_type;location;lat;lon;timestamp;P1;P2;P0
38288;PMS5003;24092;53.370;-6.588;2022-08-21T00:00:15;5;4;
38288;PMS5003;24092;53.370;-6.588;2022-08-21T00:00:20;5;4;
38288;PMS5003;24092;53.370;-6.588;2022-08-21T00:02:50;4;4;
38288;PMS5003;24092;53.370;-6.588;2022-08-21T00:05:20;4;3;
38288;PMS5003;24092;53.370;-6.588;2022-08-21T00:07:48;2;2;
38288;PMS5003;24092;53.370;-6.588;2022-08-21T00:10:15;4;3;
38288;PMS5003;24092;53.370;-6.588;2022-08-21T00:12:42;4;3;
38288;PMS5003;24092;53.370;-6.588;2022-08-21T00:15:12;4;3;
38288;PMS5003;24092;53.370;-6.588;2022-08-21T00:17:42;3;2;
38288;PMS5003;24092;53.370;-6.588;2022-08-21T00:20:10;6;4;
38288;PMS5003;24092;53.370;-6.588;2022-08-21T00:22:38;5;4;
38288;PMS5003;24092;53.370;-6.588;2022-08-21T00:25:07;3;3;
38288;PMS5003;24092;53.370;-6.588;2022-08-21T00:27:35;4;3;
38288;PMS5003;24092;53.370;-6.588;2022-08-21T00:30:03;5;4;
38288;PMS5003;24092;53.370;-6.588;2022-08-21T00:32:31;3;3;
38288;PMS5003;24092;53.370;-6.588;2022-08-21T00:34:59;4;3;
38288;PMS5003;24092;53.370;-6.588;2022-08-21T00:37:26;4;2;
38288;PMS5003;24092;53.370;-6.588;2022-08-21T00:39:53;3;2;
38288;PMS5003;24092;53.370;-6.588;2022-08-21T00:42:20;4;2;
38288;PMS5003;24092;53.370;-6.588;2022-08-21T00:44:48;4;3;
38288;PMS5003;24092;53.370;-6.588;2022-08-21T00:47:16;3;2;
38288;PMS5003;24092;53.370;-6.588;2022-08-21T00:49:44;4;3;
38288;PMS5003;24092;53.370;-6.588;2022-08-21T00:52:13;4;2;
38288;PMS5003;24092;53.370;-6.588;2022-08-21T00:54:44;4;3;
38288;PMS5003;24092;53.370;-6.588;2022-08-21T00:57:16;2;2;
38288;PMS5003;24092;53.370;-6.588;2022-08-21T00:59:50;2;2;
38288;PMS5003;24092;53.370;-6.588;2022-08-21T01:02:20;5;4;
38288;PMS5003;24092;53.370;-6.588;2022-08-21T01:04:48;3;3;
38288;PMS5003;24092;53.370;-6.588;2022-08-21T01:07:16;3;2;
38288;PMS5003;24092;53.370;-6.588;2022-08-21T01:09:43;2;2;
38288;PMS5003;24092;53.370;-6.588;2022-08-21T01:12:12;3;2;
38288;PMS5003;24092;53.370;-6.588;2022-08-21T01:14:40;3;3;
38288;PMS5003;24092;53.370;-6.588;2022-08-21T01:17:09;4;3;
38288;PMS5003;24092;53.370;-6.588;2022-08-21T01:19:37;3;2;
38288;PMS5003;24092;53.370;-6.588;2022-08-21T01:22:05;4;3;
38288;PMS5003;24092;53.370;-6.588;2022-08-21T01:24:33;5;4;
38288;PMS5003;24092;53.370;-6.588;2022-08-21T01:27:00;2;2;
38288;PMS5003;24092;53.370;-6.588;2022-08-21T01:29:30;3;3;
38288;PMS5003;24092;53.370;-6.588;2022-08-21T01:32:03;4;3;
38288;PMS5003;24092;53.370;-6.588;2022-08-21T01:34:34;6;6;
38288;PMS5003;24092;53.370;-6.588;2022-08-21T01:37:04;5;5;
38288;PMS5003;24092;53.370;-6.588;2022-08-21T01:39:32;8;5;
38288;PMS5003;24092;53.370;-6.588;2022-08-21T01:42:00;3;3;
38288;PMS5003;24092;53.370;-6.588;2022-08-21T01:44:27;5;4;
38288;PMS5003;24092;53.370;-6.588;2022-08-21T01:46:54;5;4;
38288;PMS5003;24092;53.370;-6.588;2022-08-21T01:49:24;5;4;
38288;PMS5003;24092;53.370;-6.588;2022-08-21T01:51:51;3;3;
38288;PMS5003;24092;53.370;-6.588;2022-08-21T01:54:18;5;4;
38288;PMS5003;24092;53.370;-6.588;2022-08-21T01:56:46;4;4;
38288;PMS5003;24092;53.370;-6.588;2022-08-21T01:59:16;3;3;
38288;PMS5003;24092;53.370;-6.588;2022-08-21T02:01:43;2;2;
38288;PMS5003;24092;53.370;-6.588;2022-08-21T02:04:10;3;3;
38288;PMS5003;24092;53.370;-6.588;2022-08-21T02:06:38;3;3;
38288;PMS5003;24092;53.370;-6.588;2022-08-21T02:09:06;4;3;
38288;PMS5003;24092;53.370;-6.588;2022-08-21T02:11:37;4;3;
38288;PMS5003;24092;53.370;-6.588;2022-08-21T02:14:04;3;3;
38288;PMS5003;24092;53.370;-6.588;2022-08-21T02:16:31;4;4;
38288;PMS5003;24092;53.370;-6.588;2022-08-21T02:18:58;4;4;
38288;PMS5003;24092;53.370;-6.588;2022-08-21T02:21:25;4;4;
38288;PMS5003;24092;53.370;-6.588;2022-08-21T02:23:52;3;3;
38288;PMS5003;24092;53.370;-6.588;2022-08-21T02:26:19;3;3;
38288;PMS5003;24092;53.370;-6.588;2022-08-21T02:28:46;4;4;
38288;PMS5003;24092;53.370;-6.588;2022-08-21T02:31:13;4;3;
38288;PMS5003;24092;53.370;-6.588;2022-08-21T02:33:40;3;3;
38288;PMS5003;24092;53.370;-6.588;2022-08-21T02:36:08;6;4;
38288;PMS5003;24092;53.370;-6.588;2022-08-21T02:38:38;2;2;
38288;PMS5003;24092;53.370;-6.588;2022-08-21T02:41:08;4;3;
38288;PMS5003;24092;53.370;-6.588;2022-08-21T02:43:37;3;3;
38288;PMS5003;24092;53.370;-6.588;2022-08-21T02:46:06;3;3;
38288;PMS5003;24092;53.370;-6.588;2022-08-21T02:48:34;5;3;
38288;PMS5003;24092;53.370;-6.588;2022-08-21T02:51:03;5;4;
38288;PMS5003;24092;53.370;-6.588;2022-08-21T02:53:32;9;7;
38288;PMS5003;24092;53.370;-6.588;2022-08-21T02:56:01;4;3;
38288;PMS5003;24092;53.370;-6.588;2022-08-21T02:58:32;4;3;
38288;PMS5003;24092;53.370;-6.588;2022-08-21T03:01:01;2;2;
38288;PMS5003;24092;53.370;-6.588;2022-08-21T03:03:29;2;2;
38288;PMS5003;24092;53.370;-6.588;2022-08-21T03:05:56;4;3;
38288;PMS5003;24092;53.370;-6.588;2022-08-21T03:08:23;3;3;
38288;PMS5003;24092;53.370;-6.588;2022-08-21T03:10:51;5;3;
38288;PMS5003;24092;53.370;-6.588;2022-08-21T03:13:19;3;3;
38288;PMS5003;24092;53.370;-6.588;2022-08-21T03:15:47;5;4;
38288;PMS5003;24092;53.370;-6.588;2022-08-21T03:18:16;4;3;
38288;PMS5003;24092;53.370;-6.588;2022-08-21T03:20:44;5;3;
38288;PMS5003;24092;53.370;-6.588;2022-08-21T03:23:12;3;3;
38288;PMS5003;24092;53.370;-6.588;2022-08-21T03:25:40;3;3;
38288;PMS5003;24092;53.370;-6.588;2022-08-21T03:28:10;3;2;
38288;PMS5003;24092;53.370;-6.588;2022-08-21T03:30:39;6;4;
38288;PMS5003;24092;53.370;-6.588;2022-08-21T03:33:07;5;4;
38288;PMS5003;24092;53.370;-6.588;2022-08-21T03:35:34;3;3;
38288;PMS5003;24092;53.370;-6.588;2022-08-21T03:38:01;7;3;
38288;PMS5003;24092;53.370;-6.588;2022-08-21T03:40:28;3;3;
38288;PMS5003;24092;53.370;-6.588;2022-08-21T03:42:55;4;3;
38288;PMS5003;24092;53.370;-6.588;2022-08-21T03:45:22;3;2;
38288;PMS5003;24092;53.370;-6.588;2022-08-21T03:47:51;3;3;
38288;PMS5003;24092;53.370;-6.588;2022-08-21T03:50:22;6;2;
38288;PMS5003;24092;53.370;-6.588;2022-08-21T03:52:50;3;3;
38288;PMS5003;24092;53.370;-6.588;2022-08-21T03:55:17;3;3;
38288;PMS5003;24092;53.370;-6.588;2022-08-21T03:57:45;2;2;
38288;PMS5003;24092;53.370;-6.588;2022-08-21T04:00:13;5;3;
38288;PMS5003;24092;53.370;-6.588;2022-08-21T04:02:42;5;4;
38288;PMS5003;24092;53.370;-6.588;2022-08-21T04:05:10;3;2;
38288;PMS5003;24092;53.370;-6.588;2022-08-21T04:07:39;3;2;
38288;PMS5003;24092;53.370;-6.588;2022-08-21T04:10:07;6;3;
38288;PMS5003;24092;53.370;-6.588;2022-08-21T04:12:34;3;3;
38288;PMS5003;24092;53.370;-6.588;2022-08-21T04:15:01;4;3;
38288;PMS5003;24092;53.370;-6.588;2022-08-21T04:17:30;4;2;
38288;PMS5003;24092;53.370;-6.588;2022-08-21T04:19:57;3;2;
38288;PMS5003;24092;53.370;-6.588;2022-08-21T04:22:24;3;2;
38288;PMS5003;24092;53.370;-6.588;2022-08-21T04:24:51;3;2;
38288;PMS5003;24092;53.370;-6.588;2022-08-21T04:27:18;5;3;
38288;PMS5003;24092;53.370;-6.588;2022-08-21T04:29:45;4;3;
38288;PMS5003;24092;53.370;-6.588;2022-08-21T04:32:12;3;2;
38288;PMS5003;24092;53.370;-6.588;2022-08-21T04:34:39;6;5;
38288;PMS5003;24092;53.370;-6.588;2022-08-21T04:37:06;3;3;
38288;PMS5003;24092;53.370;-6.588;2022-08-21T04:39:33;5;5;
38288;PMS5003;24092;53.370;-6.588;2022-08-21T04:42:00;3;3;
38288;PMS5003;24092;53.370;-6.588;2022-08-21T04:44:27;4;3;
38288;PMS5003;24092;53.370;-6.588;2022-08-21T04:46:54;2;2;
38288;PMS5003;24092;53.370;-6.588;2022-08-21T04:49:22;10;8;
38288;PMS5003;24092;53.370;-6.588;2022-08-21T04:51:49;3;2;
38288;PMS5003;24092;53.370;-6.588;2022-08-21T04:54:18;6;3;
38288;PMS5003;24092;53.370;-6.588;2022-08-21T04:56:48;2;2;
38288;PMS5003;24092;53.370;-6.588;2022-08-21T04:59:20;5;3;
38288;PMS5003;24092;53.370;-6.588;2022-08-21T05:01:50;3;3;
38288;PMS5003;24092;53.370;-6.588;2022-08-21T05:04:20;9;4;
38288;PMS5003;24092;53.370;-6.588;2022-08-21T05:06:50;2;2;
38288;PMS5003;24092;53.370;-6.588;2022-08-21T05:09:22;4;2;
38288;PMS5003;24092;53.370;-6.588;2022-08-21T05:11:50;5;4;
38288;PMS5003;24092;53.370;-6.588;2022-08-21T05:14:18;3;2;
38288;PMS5003;24092;53.370;-6.588;2022-08-21T05:16:45;3;3;
38288;PMS5003;24092;53.370;-6.588;2022-08-21T05:19:13;4;3;
38288;PMS5003;24092;53.370;-6.588;2022-08-21T05:21:42;3;2;
38288;PMS5003;24092;53.370;-6.588;2022-08-21T05:24:10;3;3;
38288;PMS5003;24092;53.370;-6.588;2022-08-21T05:26:38;5;3;
38288;PMS5003;24092;53.370;-6.588;2022-08-21T05:29:05;3;2;
38288;PMS5003;24092;53.370;-6.588;2022-08-21T05:31:33;3;3;
38288;PMS5003;24092;53.370;-6.588;2022-08-21T05:33:59;2;2;
38288;PMS5003;24092;53.370;-6.588;2022-08-21T05:36:26;4;2;
38288;PMS5003;24092;53.370;-6.588;2022-08-21T05:38:54;5;3;
38288;PMS5003;24092;53.370;-6.588;2022-08-21T05:41:21;3;3;
38288;PMS5003;24092;53.370;-6.588;2022-08-21T05:43:48;4;4;
38288;PMS5003;24092;53.370;-6.588;2022-08-21T05:46:15;4;4;
38288;PMS5003;24092;53.370;-6.588;2022-08-21T05:48:42;3;2;
38288;PMS5003;24092;53.370;-6.588;2022-08-21T05:51:09;4;2;
38288;PMS5003;24092;53.370;-6.588;2022-08-21T05:53:39;2;2;
38288;PMS5003;24092;53.370;-6.588;2022-08-21T05:56:07;4;3;
38288;PMS5003;24092;53.370;-6.588;2022-08-21T05:58:35;3;3;
38288;PMS5003;24092;53.370;-6.588;2022-08-21T06:01:02;3;2;
38288;PMS5003;24092;53.370;-6.588;2022-08-21T06:03:32;2;2;
38288;PMS5003;24092;53.370;-6.588;2022-08-21T06:06:01;5;4;
38288;PMS5003;24092;53.370;-6.588;2022-08-21T06:08:28;2;2;
38288;PMS5003;24092;53.370;-6.588;2022-08-21T06:10:57;6;4;
38288;PMS5003;24092;53.370;-6.588;2022-08-21T06:13:27;7;4;
38288;PMS5003;24092;53.370;-6.588;2022-08-21T06:16:04;2;2;
38288;PMS5003;24092;53.370;-6.588;2022-08-21T06:18:34;2;2;
38288;PMS5003;24092;53.370;-6.588;2022-08-21T06:21:02;4;4;
38288;PMS5003;24092;53.370;-6.588;2022-08-21T06:23:31;5;4;
38288;PMS5003;24092;53.370;-6.588;2022-08-21T06:25:59;4;3;
38288;PMS5003;24092;53.370;-6.588;2022-08-21T06:28:27;4;2;
38288;PMS5003;24092;53.370;-6.588;2022-08-21T06:30:54;5;3;
38288;PMS5003;24092;53.370;-6.588;2022-08-21T06:33:21;4;4;
38288;PMS5003;24092;53.370;-6.588;2022-08-21T06:35:48;3;3;
38288;PMS5003;24092;53.370;-6.588;2022-08-21T06:38:15;4;3;
38288;PMS5003;24092;53.370;-6.588;2022-08-21T06:40:42;4;3;
38288;PMS5003;24092;53.370;-6.588;2022-08-21T06:43:11;4;4;
38288;PMS5003;24092;53.370;-6.588;2022-08-21T06:45:42;2;2;
38288;PMS5003;24092;53.370;-6.588;2022-08-21T06:48:09;3;2;
38288;PMS5003;24092;53.370;-6.588;2022-08-21T06:50:37;4;2;
38288;PMS5003;24092;53.370;-6.588;2022-08-21T06:53:08;3;2;
38288;PMS5003;24092;53.370;-6.588;2022-08-21T06:55:37;2;1;
38288;PMS5003;24092;53.370;-6.588;2022-08-21T06:58:06;3;3;
38288;PMS5003;24092;53.370;-6.588;2022-08-21T07:00:34;6;4;
38288;PMS5003;24092;53.370;-6.588;2022-08-21T07:03:04;5;4;
38288;PMS5003;24092;53.370;-6.588;2022-08-21T07:05:32;4;3;
38288;PMS5003;24092;53.370;-6.588;2022-08-21T07:07:59;3;3;
38288;PMS5003;24092;53.370;-6.588;2022-08-21T07:10:26;3;3;
38288;PMS5003;24092;53.370;-6.588;2022-08-21T07:12:54;3;3;
38288;PMS5003;24092;53.370;-6.588;2022-08-21T07:15:21;1;1;
38288;PMS5003;24092;53.370;-6.588;2022-08-21T07:17:47;4;3;
38288;PMS5003;24092;53.370;-6.588;2022-08-21T07:20:15;2;2;
38288;PMS5003;24092;53.370;-6.588;2022-08-21T07:22:42;3;1;
38288;PMS5003;24092;53.370;-6.588;2022-08-21T07:25:10;3;3;
38288;PMS5003;24092;53.370;-6.588;2022-08-21T07:27:37;2;1;
38288;PMS5003;24092;53.370;-6.588;2022-08-21T07:30:05;2;2;
38288;PMS5003;24092;53.370;-6.588;2022-08-21T07:32:32;3;3;
38288;PMS5003;24092;53.370;-6.588;2022-08-21T07:35:00;3;3;
38288;PMS5003;24092;53.370;-6.588;2022-08-21T07:37:27;3;2;
38288;PMS5003;24092;53.370;-6.588;2022-08-21T07:39:54;3;3;
38288;PMS5003;24092;53.370;-6.588;2022-08-21T07:42:21;2;2;
38288;PMS5003;24092;53.370;-6.588;2022-08-21T07:44:48;2;1;
38288;PMS5003;24092;53.370;-6.588;2022-08-21T07:47:14;4;3;
38288;PMS5003;24092;53.370;-6.588;2022-08-21T07:49:41;2;2;
38288;PMS5003;24092;53.370;-6.588;2022-08-21T07:52:08;3;2;
38288;PMS5003;24092;53.370;-6.588;2022-08-21T07:54:35;2;1;
38288;PMS5003;24092;53.370;-6.588;2022-08-21T07:57:02;2;1;
38288;PMS5003;24092;53.370;-6.588;2022-08-21T07:59:30;2;2;
38288;PMS5003;24092;53.370;-6.588;2022-08-21T08:01:57;6;2;
38288;PMS5003;24092;53.370;-6.588;2022-08-21T08:04:24;4;2;
38288;PMS5003;24092;53.370;-6.588;2022-08-21T08:06:51;4;3;
38288;PMS5003;24092;53.370;-6.588;2022-08-21T08:09:19;4;3;
38288;PMS5003;24092;53.370;-6.588;2022-08-21T08:11:45;2;2;
38288;PMS5003;24092;53.370;-6.588;2022-08-21T08:14:12;2;1;
38288;PMS5003;24092;53.370;-6.588;2022-08-21T08:16:39;2;2;
38288;PMS5003;24092;53.370;-6.588;2022-08-21T08:19:06;1;1;
38288;PMS5003;24092;53.370;-6.588;2022-08-21T08:21:33;2;2;
38288;PMS5003;24092;53.370;-6.588;2022-08-21T08:24:00;0;0;
38288;PMS5003;24092;53.370;-6.588;2022-08-21T08:26:28;4;3;
38288;PMS5003;24092;53.370;-6.588;2022-08-21T08:28:55;2;1;
38288;PMS5003;24092;53.370;-6.588;2022-08-21T08:31:22;1;1;
38288;PMS5003;24092;53.370;-6.588;2022-08-21T08:33:49;2;1;
38288;PMS5003;24092;53.370;-6.588;2022-08-21T08:36:16;2;1;
38288;PMS5003;24092;53.370;-6.588;2022-08-21T08:38:44;2;2;
38288;PMS5003;24092;53.370;-6.588;2022-08-21T08:41:12;1;1;
38288;PMS5003;24092;53.370;-6.588;2022-08-21T08:43:43;1;1;
38288;PMS5003;24092;53.370;-6.588;2022-08-21T08:46:19;0;0;
38288;PMS5003;24092;53.370;-6.588;2022-08-21T08:48:52;1;1;
38288;PMS5003;24092;53.370;-6.588;2022-08-21T08:51:24;0;0;
38288;PMS5003;24092;53.370;-6.588;2022-08-21T08:53:58;1;1;
38288;PMS5003;24092;53.370;-6.588;2022-08-21T08:56:29;1;1;
38288;PMS5003;24092;53.370;-6.588;2022-08-21T08:59:00;2;2;
38288;PMS5003;24092;53.370;-6.588;2022-08-21T09:01:33;1;1;
38288;PMS5003;24092;53.370;-6.588;2022-08-21T09:04:01;1;1;
38288;PMS5003;24092;53.370;-6.588;2022-08-21T09:06:33;0;0;
38288;PMS5003;24092;53.370;-6.588;2022-08-21T09:09:11;0;0;
38288;PMS5003;24092;53.370;-6.588;2022-08-21T09:11:56;1;0;
38288;PMS5003;24092;53.370;-6.588;2022-08-21T09:14:30;2;0;
38288;PMS5003;24092;53.370;-6.588;2022-08-21T09:17:10;0;0;
38288;PMS5003;24092;53.370;-6.588;2022-08-21T09:19:52;2;2;
38288;PMS5003;24092;53.370;-6.588;2022-08-21T09:22:30;0;0;
38288;PMS5003;24092;53.370;-6.588;2022-08-21T09:25:08;0;0;
38288;PMS5003;24092;53.370;-6.588;2022-08-21T09:27:41;2;1;
38288;PMS5003;24092;53.370;-6.588;2022-08-21T09:30:09;1;1;
38288;PMS5003;24092;53.370;-6.588;2022-08-21T09:32:37;0;0;
38288;PMS5003;24092;53.370;-6.588;2022-08-21T09:35:07;1;0;
38288;PMS5003;24092;53.370;-6.588;2022-08-21T09:37:46;0;0;
38288;PMS5003;24092;53.370;-6.588;2022-08-21T09:40:19;0;0;
38288;PMS5003;24092;53.370;-6.588;2022-08-21T09:42:54;2;1;
38288;PMS5003;24092;53.370;-6.588;2022-08-21T09:45:22;1;1;
38288;PMS5003;24092;53.370;-6.588;2022-08-21T09:47:49;0;0;
38288;PMS5003;24092;53.370;-6.588;2022-08-21T09:50:17;0;0;
38288;PMS5003;24092;53.370;-6.588;2022-08-21T09:52:48;0;0;
38288;PMS5003;24092;53.370;-6.588;2022-08-21T09:55:19;1;1;
38288;PMS5003;24092;53.370;-6.588;2022-08-21T09:57:53;0;0;
38288;PMS5003;24092;53.370;-6.588;2022-08-21T10:00:25;0;0;
38288;PMS5003;24092;53.370;-6.588;2022-08-21T10:02:53;0;0;
38288;PMS5003;24092;53.370;-6.588;2022-08-21T10:05:21;1;1;
38288;PMS5003;24092;53.370;-6.588;2022-08-21T10:07:50;0;0;
38288;PMS5003;24092;53.370;-6.588;2022-08-21T10:10:19;1;1;
38288;PMS5003;24092;53.370;-6.588;2022-08-21T10:12:49;0;0;
38288;PMS5003;24092;53.370;-6.588;2022-08-21T10:15:24;1;1;
38288;PMS5003;24092;53.370;-6.588;2022-08-21T10:18:01;0;0;
38288;PMS5003;24092;53.370;-6.588;2022-08-21T10:20:36;0;0;
38288;PMS5003;24092;53.370;-6.588;2022-08-21T10:23:16;0;0;
38288;PMS5003;24092;53.370;-6.588;2022-08-21T10:25:56;0;0;
38288;PMS5003;24092;53.370;-6.588;2022-08-21T10:28:32;0;0;
38288;PMS5003;24092;53.370;-6.588;2022-08-21T10:31:09;1;0;
38288;PMS5003;24092;53.370;-6.588;2022-08-21T10:33:45;0;0;
38288;PMS5003;24092;53.370;-6.588;2022-08-21T10:36:21;0;0;
38288;PMS5003;24092;53.370;-6.588;2022-08-21T10:39:00;1;0;
38288;PMS5003;24092;53.370;-6.588;2022-08-21T10:41:39;1;1;
38288;PMS5003;24092;53.370;-6.588;2022-08-21T10:44:20;0;0;
38288;PMS5003;24092;53.370;-6.588;2022-08-21T10:46:57;0;0;
38288;PMS5003;24092;53.370;-6.588;2022-08-21T10:49:33;0;0;
38288;PMS5003;24092;53.370;-6.588;2022-08-21T10:52:22;1;1;
38288;PMS5003;24092;53.370;-6.588;2022-08-21T10:55:00;0;0;
38288;PMS5003;24092;53.370;-6.588;2022-08-21T10:57:33;0;0;
38288;PMS5003;24092;53.370;-6.588;2022-08-21T11:00:08;0;0;
38288;PMS5003;24092;53.370;-6.588;2022-08-21T11:02:38;0;0;
38288;PMS5003;24092;53.370;-6.588;2022-08-21T11:05:11;1;1;
38288;PMS5003;24092;53.370;-6.588;2022-08-21T11:07:44;1;0;
38288;PMS5003;24092;53.370;-6.588;2022-08-21T11:10:18;0;0;
38288;PMS5003;24092;53.370;-6.588;2022-08-21T11:12:48;0;0;
38288;PMS5003;24092;53.370;-6.588;2022-08-21T11:15:24;0;0;
38288;PMS5003;24092;53.370;-6.588;2022-08-21T11:17:59;0;0;
38288;PMS5003;24092;53.370;-6.588;2022-08-21T11:20:38;0;0;
38288;PMS5003;24092;53.370;-6.588;2022-08-21T11:23:13;1;0;
38288;PMS5003;24092;53.370;-6.588;2022-08-21T11:25:47;2;1;
38288;PMS5003;24092;53.370;-6.588;2022-08-21T11:28:20;5;4;
38288;PMS5003;24092;53.370;-6.588;2022-08-21T11:30:59;1;0;
38288;PMS5003;24092;53.370;-6.588;2022-08-21T11:33:43;2;1;
38288;PMS5003;24092;53.370;-6.588;2022-08-21T11:36:21;3;0;
38288;PMS5003;24092;53.370;-6.588;2022-08-21T11:38:57;0;0;
38288;PMS5003;24092;53.370;-6.588;2022-08-21T11:41:34;0;0;
38288;PMS5003;24092;53.370;-6.588;2022-08-21T11:44:08;1;0;
38288;PMS5003;24092;53.370;-6.588;2022-08-21T11:46:43;1;0;
38288;PMS5003;24092;53.370;-6.588;2022-08-21T11:49:19;0;0;
38288;PMS5003;24092;53.370;-6.588;2022-08-21T11:51:57;0;0;
38288;PMS5003;24092;53.370;-6.588;2022-08-21T11:54:36;1;0;
38288;PMS5003;24092;53.370;-6.588;2022-08-21T11:57:11;0;0;
38288;PMS5003;24092;53.370;-6.588;2022-08-21T11:59:45;0;0;
38288;PMS5003;24092;53.370;-6.588;2022-08-21T12:02:18;2;2;
38288;PMS5003;24092;53.370;-6.588;2022-08-21T12:04:50;1;1;
38288;PMS5003;24092;53.370;-6.588;2022-08-21T12:07:30;1;1;
38288;PMS5003;24092;53.370;-6.588;2022-08-21T12:10:03;2;2;
38288;PMS5003;24092;53.370;-6.588;2022-08-21T12:12:33;1;1;
38288;PMS5003;24092;53.370;-6.588;2022-08-21T12:15:06;1;1;
38288;PMS5003;24092;53.370;-6.588;2022-08-21T12:17:52;1;1;
38288;PMS5003;24092;53.370;-6.588;2022-08-21T12:20:25;0;0;
38288;PMS5003;24092;53.370;-6.588;2022-08-21T12:23:03;1;1;
38288;PMS5003;24092;53.370;-6.588;2022-08-21T12:25:42;2;1;
38288;PMS5003;24092;53.370;-6.588;2022-08-21T12:28:14;1;1;
38288;PMS5003;24092;53.370;-6.588;2022-08-21T12:30:48;1;1;
38288;PMS5003;24092;53.370;-6.588;2022-08-21T12:33:20;3;2;
38288;PMS5003;24092;53.370;-6.588;2022-08-21T12:35:52;0;0;
38288;PMS5003;24092;53.370;-6.588;2022-08-21T12:38:28;0;0;
38288;PMS5003;24092;53.370;-6.588;2022-08-21T12:41:02;1;1;
38288;PMS5003;24092;53.370;-6.588;2022-08-21T12:43:34;2;1;
38288;PMS5003;24092;53.370;-6.588;2022-08-21T12:46:05;2;1;
38288;PMS5003;24092;53.370;-6.588;2022-08-21T12:48:33;2;1;
38288;PMS5003;24092;53.370;-6.588;2022-08-21T12:51:13;1;0;
38288;PMS5003;24092;53.370;-6.588;2022-08-21T12:53:43;1;1;
38288;PMS5003;24092;53.370;-6.588;2022-08-21T12:56:15;1;1;
38288;PMS5003;24092;53.370;-6.588;2022-08-21T12:58:45;1;1;
38288;PMS5003;24092;53.370;-6.588;2022-08-21T13:01:16;0;0;
38288;PMS5003;24092;53.370;-6.588;2022-08-21T13:03:48;0;0;
38288;PMS5003;24092;53.370;-6.588;2022-08-21T13:06:18;1;1;
38288;PMS5003;24092;53.370;-6.588;2022-08-21T13:08:47;1;1;
38288;PMS5003;24092;53.370;-6.588;2022-08-21T13:11:20;1;0;
38288;PMS5003;24092;53.370;-6.588;2022-08-21T13:13:50;1;1;
38288;PMS5003;24092;53.370;-6.588;2022-08-21T13:16:20;2;1;
38288;PMS5003;24092;53.370;-6.588;2022-08-21T13:18:54;3;1;
38288;PMS5003;24092;53.370;-6.588;2022-08-21T13:21:27;1;1;
38288;PMS5003;24092;53.370;-6.588;2022-08-21T13:24:15;1;1;
38288;PMS5003;24092;53.370;-6.588;2022-08-21T13:26:44;1;1;
38288;PMS5003;24092;53.370;-6.588;2022-08-21T13:29:14;1;1;
38288;PMS5003;24092;53.370;-6.588;2022-08-21T13:31:47;1;1;
38288;PMS5003;24092;53.370;-6.588;2022-08-21T13:34:17;0;0;
38288;PMS5003;24092;53.370;-6.588;2022-08-21T13:36:46;1;1;
38288;PMS5003;24092;53.370;-6.588;2022-08-21T13:39:15;1;1;
38288;PMS5003;24092;53.370;-6.588;2022-08-21T13:41:45;0;0;
38288;PMS5003;24092;53.370;-6.588;2022-08-21T13:44:15;1;1;
38288;PMS5003;24092;53.370;-6.588;2022-08-21T13:46:45;2;2;
38288;PMS5003;24092;53.370;-6.588;2022-08-21T13:49:14;1;1;
38288;PMS5003;24092;53.370;-6.588;2022-08-21T13:51:43;2;2;
38288;PMS5003;24092;53.370;-6.588;2022-08-21T13:54:14;3;1;
38288;PMS5003;24092;53.370;-6.588;2022-08-21T13:56:47;2;1;
38288;PMS5003;24092;53.370;-6.588;2022-08-21T13:59:22;2;1;
38288;PMS5003;24092;53.370;-6.588;2022-08-21T14:01:52;0;0;
38288;PMS5003;24092;53.370;-6.588;2022-08-21T14:04:22;1;0;
38288;PMS5003;24092;53.370;-6.588;2022-08-21T14:06:52;0;0;
38288;PMS5003;24092;53.370;-6.588;2022-08-21T14:09:22;0;0;
38288;PMS5003;24092;53.370;-6.588;2022-08-21T14:11:53;0;0;
38288;PMS5003;24092;53.370;-6.588;2022-08-21T14:14:23;1;0;
38288;PMS5003;24092;53.370;-6.588;2022-08-21T14:16:53;0;0;
38288;PMS5003;24092;53.370;-6.588;2022-08-21T14:19:23;0;0;
38288;PMS5003;24092;53.370;-6.588;2022-08-21T14:21:53;0;0;
38288;PMS5003;24092;53.370;-6.588;2022-08-21T14:24:28;1;1;
38288;PMS5003;24092;53.370;-6.588;2022-08-21T14:26:57;1;1;
38288;PMS5003;24092;53.370;-6.588;2022-08-21T14:29:33;1;1;
38288;PMS5003;24092;53.370;-6.588;2022-08-21T14:32:08;2;1;
38288;PMS5003;24092;53.370;-6.588;2022-08-21T14:34:36;0;0;
38288;PMS5003;24092;53.370;-6.588;2022-08-21T14:37:04;0;0;
38288;PMS5003;24092;53.370;-6.588;2022-08-21T14:39:31;0;0;
38288;PMS5003;24092;53.370;-6.588;2022-08-21T14:41:59;1;1;
38288;PMS5003;24092;53.370;-6.588;2022-08-21T14:44:26;1;1;
38288;PMS5003;24092;53.370;-6.588;2022-08-21T14:46:54;1;1;
38288;PMS5003;24092;53.370;-6.588;2022-08-21T14:49:21;0;0;
38288;PMS5003;24092;53.370;-6.588;2022-08-21T14:51:50;1;1;
38288;PMS5003;24092;53.370;-6.588;2022-08-21T14:54:17;0;0;
38288;PMS5003;24092;53.370;-6.588;2022-08-21T14:56:45;2;1;
38288;PMS5003;24092;53.370;-6.588;2022-08-21T14:59:12;0;0;
38288;PMS5003;24092;53.370;-6.588;2022-08-21T15:01:40;0;0;
38288;PMS5003;24092;53.370;-6.588;2022-08-21T15:04:07;2;1;
38288;PMS5003;24092;53.370;-6.588;2022-08-21T15:06:35;0;0;
38288;PMS5003;24092;53.370;-6.588;2022-08-21T15:09:02;1;1;
38288;PMS5003;24092;53.370;-6.588;2022-08-21T15:11:30;0;0;
38288;PMS5003;24092;53.370;-6.588;2022-08-21T15:14:00;1;1;
38288;PMS5003;24092;53.370;-6.588;2022-08-21T15:16:29;1;1;
38288;PMS5003;24092;53.370;-6.588;2022-08-21T15:18:57;0;0;
38288;PMS5003;24092;53.370;-6.588;2022-08-21T15:21:24;1;1;
38288;PMS5003;24092;53.370;-6.588;2022-08-21T15:23:52;0;0;
38288;PMS5003;24092;53.370;-6.588;2022-08-21T15:26:20;0;0;
38288;PMS5003;24092;53.370;-6.588;2022-08-21T15:28:49;0;0;
38288;PMS5003;24092;53.370;-6.588;2022-08-21T15:31:16;2;1;
38288;PMS5003;24092;53.370;-6.588;2022-08-21T15:33:44;1;1;
38288;PMS5003;24092;53.370;-6.588;2022-08-21T15:36:10;2;0;
38288;PMS5003;24092;53.370;-6.588;2022-08-21T15:38:38;0;0;
38288;PMS5003;24092;53.370;-6.588;2022-08-21T15:41:05;1;1;
38288;PMS5003;24092;53.370;-6.588;2022-08-21T15:43:35;0;0;
38288;PMS5003;24092;53.370;-6.588;2022-08-21T15:46:07;0;0;
38288;PMS5003;24092;53.370;-6.588;2022-08-21T15:48:38;0;0;
38288;PMS5003;24092;53.370;-6.588;2022-08-21T15:51:09;0;0;
38288;PMS5003;24092;53.370;-6.588;2022-08-21T15:53:37;2;2;
38288;PMS5003;24092;53.370;-6.588;2022-08-21T15:56:05;0;0;
38288;PMS5003;24092;53.370;-6.588;2022-08-21T15:58:36;1;0;
38288;PMS5003;24092;53.370;-6.588;2022-08-21T16:01:05;1;0;
38288;PMS5003;24092;53.370;-6.588;2022-08-21T16:03:32;1;0;
38288;PMS5003;24092;53.370;-6.588;2022-08-21T16:06:00;0;0;
38288;PMS5003;24092;53.370;-6.588;2022-08-21T16:08:27;2;2;
38288;PMS5003;24092;53.370;-6.588;2022-08-21T16:10:55;1;0;
38288;PMS5003;24092;53.370;-6.588;2022-08-21T16:13:23;1;1;
38288;PMS5003;24092;53.370;-6.588;2022-08-21T16:15:53;0;0;
38288;PMS5003;24092;53.370;-6.588;2022-08-21T16:18:21;0;0;
38288;PMS5003;24092;53.370;-6.588;2022-08-21T16:20:49;0;0;
38288;PMS5003;24092;53.370;-6.588;2022-08-21T16:23:17;1;1;
38288;PMS5003;24092;53.370;-6.588;2022-08-21T16:25:44;2;1;
38288;PMS5003;24092;53.370;-6.588;2022-08-21T16:28:13;1;1;
38288;PMS5003;24092;53.370;-6.588;2022-08-21T16:30:43;2;2;
38288;PMS5003;24092;53.370;-6.588;2022-08-21T16:33:18;3;3;
38288;PMS5003;24092;53.370;-6.588;2022-08-21T16:35:47;0;0;
38288;PMS5003;24092;53.370;-6.588;2022-08-21T16:38:15;4;2;
38288;PMS5003;24092;53.370;-6.588;2022-08-21T16:40:42;8;7;
38288;PMS5003;24092;53.370;-6.588;2022-08-21T16:43:10;10;9;
38288;PMS5003;24092;53.370;-6.588;2022-08-21T16:45:37;13;13;
38288;PMS5003;24092;53.370;-6.588;2022-08-21T16:48:06;5;4;